Time;durP1;ratioP1;P1;durP2;ratioP2;P2;SDS_P1;SDS_P2;PMS_P1;PMS_P2;Temp;Humidity;BMP_temperature;BMP_pressure;BME280_temperature;BME280_humidity;BME280_pressure;Samples;Min_cycle;Max_cycle;Signal;HPM_P1;HPM_P2
2019/06/30 00:00:37;;;;;;;3.9;3.1;;;;;;;33.87;26.93945;1001.189;;;;
2019/06/30 00:03:03;;;;;;;6.2;3.1;;;;;;;33.85;26.96387;1001.164;;;;
2019/06/30 00:05:27;;;;;;;4.1;3;;;;;;;33.84;26.97461;1001.162;;;;
2019/06/30 00:07:53;;;;;;;3.7;3;;;;;;;33.82;27.01074;1001.158;;;;
2019/06/30 00:10:19;;;;;;;3.9;2.8;;;;;;;33.8;27.03418;1001.126;;;;
2019/06/30 00:12:45;;;;;;;4.2;2.8;;;;;;;33.8;27.04688;1001.161;;;;
2019/06/30 00:15:10;;;;;;;3.5;3;;;;;;;33.8;27.04688;1001.152;;;;
2019/06/30 00:17:35;;;;;;;4.5;3.1;;;;;;;33.8;27.0459;1001.121;;;;
2019/06/30 00:20:00;;;;;;;6.1;2.4;;;;;;;33.8;27.0459;1001.113;;;;
2019/06/30 00:22:26;;;;;;;6;3.2;;;;;;;33.8;27.07129;1001.095;;;;
2019/06/30 00:24:51;;;;;;;3.7;2.7;;;;;;;33.79;27.05859;1001.115;;;;
2019/06/30 00:27:17;;;;;;;4.8;2.9;;;;;;;33.8;27.05859;1001.064;;;;
2019/06/30 00:29:41;;;;;;;5.2;2.9;;;;;;;33.79;27.0459;1001.072;;;;
2019/06/30 00:29:52;;;;;;;5;3;;;;;;;33.79;27.0459;1001.069;;;;
2019/06/30 00:32:17;;;;;;;3.6;2.6;;;;;;;33.77;27.05664;1001.055;;;;
2019/06/30 00:34:43;;;;;;;4.2;3;;;;;;;33.77;27.04395;1001.042;;;;
2019/06/30 00:37:11;;;;;;;4.4;2.6;;;;;;;33.77;27.05664;1001.005;;;;
2019/06/30 00:39:34;;;;;;;4.3;2.9;;;;;;;33.76;27.05664;1000.987;;;;
2019/06/30 00:41:59;;;;;;;4.8;2.8;;;;;;;33.77;27.05664;1000.991;;;;
2019/06/30 00:44:24;;;;;;;3.7;2.7;;;;;;;33.78;27.02051;1000.98;;;;
2019/06/30 00:46:50;;;;;;;4.2;2.6;;;;;;;33.78;27.00879;1000.933;;;;
2019/06/30 00:49:18;;;;;;;3.2;2.4;;;;;;;33.79;26.98438;1000.915;;;;
2019/06/30 00:51:41;;;;;;;3.7;2.9;;;;;;;33.78;26.98438;1000.912;;;;
2019/06/30 00:54:06;;;;;;;3.4;2.7;;;;;;;33.78;26.97168;1000.901;;;;
2019/06/30 00:56:31;;;;;;;3.8;2.5;;;;;;;33.76;26.99512;1000.879;;;;
2019/06/30 00:58:56;;;;;;;4;2.7;;;;;;;33.76;27.00684;1000.861;;;;
2019/06/30 01:01:22;;;;;;;3.8;3;;;;;;;33.75;26.98145;1000.791;;;;
2019/06/30 01:03:47;;;;;;;3.2;2.5;;;;;;;33.76;26.96973;1000.821;;;;
2019/06/30 01:06:12;;;;;;;3.1;2.5;;;;;;;33.75;26.98145;1000.822;;;;
2019/06/30 01:08:39;;;;;;;3.6;2.7;;;;;;;33.75;26.99414;1000.887;;;;
2019/06/30 01:11:05;;;;;;;3.6;2.5;;;;;;;33.76;26.96973;1000.87;;;;
2019/06/30 01:13:30;;;;;;;4;2.7;;;;;;;33.76;26.98242;1000.89;;;;
2019/06/30 01:15:56;;;;;;;3.9;2.7;;;;;;;33.76;26.98242;1000.901;;;;
2019/06/30 01:18:20;;;;;;;2.6;2.4;;;;;;;33.74;27.00586;1000.843;;;;
2019/06/30 01:21:40;;;;;;;3.4;2.5;;;;;;;33.73;27.05469;1000.832;;;;
2019/06/30 01:24:05;;;;;;;3.2;2.4;;;;;;;33.72;27.07813;1000.872;;;;
2019/06/30 01:24:29;;;;;;;5;2.5;;;;;;;33.73;27.06738;1000.85;;;;
2019/06/30 01:26:55;;;;;;;5.8;2.5;;;;;;;33.73;27.06738;1000.891;;;;
2019/06/30 01:27:05;;;;;;;3.4;2.5;;;;;;;33.74;27.06738;1000.908;;;;
2019/06/30 01:29:29;;;;;;;3.9;2.6;;;;;;;33.73;27.06738;1000.955;;;;
2019/06/30 01:31:55;;;;;;;4.6;2.8;;;;;;;33.71;27.10254;1000.927;;;;
2019/06/30 01:34:20;;;;;;;4.7;2.6;;;;;;;33.71;27.17676;1000.934;;;;
2019/06/30 01:36:44;;;;;;;5.7;2.8;;;;;;;33.71;27.18945;1000.943;;;;
2019/06/30 01:37:13;;;;;;;2.9;2.6;;;;;;;33.71;27.18945;1000.938;;;;
2019/06/30 01:39:38;;;;;;;5.3;2.9;;;;;;;33.73;27.17773;1000.94;;;;
2019/06/30 01:42:04;;;;;;;3.9;2.7;;;;;;;33.72;27.18945;1000.939;;;;
2019/06/30 01:44:29;;;;;;;2.8;2.4;;;;;;;33.7;27.21387;1000.885;;;;
2019/06/30 01:46:54;;;;;;;3.4;2.5;;;;;;;33.7;27.22656;1000.903;;;;
2019/06/30 01:49:20;;;;;;;5.4;2.6;;;;;;;33.7;27.23828;1000.894;;;;
2019/06/30 01:51:45;;;;;;;3.7;2.8;;;;;;;33.69;27.25;1000.932;;;;
2019/06/30 01:54:13;;;;;;;5.5;2.8;;;;;;;33.69;27.2373;1000.917;;;;
2019/06/30 01:56:36;;;;;;;3.1;2.4;;;;;;;33.7;27.23828;1000.88;;;;
2019/06/30 01:57:22;;;;;;;3.9;2.8;;;;;;;33.71;27.23828;1000.906;;;;
2019/06/30 01:59:48;;;;;;;4;2.7;;;;;;;33.73;27.24023;1000.903;;;;
2019/06/30 02:03:07;;;;;;;5.5;2.9;;;;;;;33.75;27.25293;1000.882;;;;
2019/06/30 02:05:32;;;;;;;3.6;2.6;;;;;;;33.74;27.29004;1000.888;;;;
2019/06/30 02:05:52;;;;;;;3.5;2.5;;;;;;;33.74;27.26563;1000.858;;;;
2019/06/30 02:08:18;;;;;;;5.5;2.9;;;;;;;33.76;27.27832;1000.855;;;;
2019/06/30 02:10:43;;;;;;;3.4;2.7;;;;;;;33.76;27.2666;1000.862;;;;
2019/06/30 02:13:09;;;;;;;3.4;2.8;;;;;;;33.78;27.25586;1000.897;;;;
2019/06/30 02:15:34;;;;;;;3.8;2.8;;;;;;;33.77;27.25488;1000.899;;;;
2019/06/30 02:18:00;;;;;;;4.7;3.1;;;;;;;33.77;27.2793;1000.922;;;;
2019/06/30 02:20:25;;;;;;;5;2.9;;;;;;;33.77;27.2666;1000.902;;;;
2019/06/30 02:22:50;;;;;;;5.6;2.9;;;;;;;33.78;27.25488;1000.889;;;;
2019/06/30 02:25:15;;;;;;;5.8;3.1;;;;;;;33.77;27.29102;1000.886;;;;
2019/06/30 02:27:41;;;;;;;7.1;3;;;;;;;33.77;27.2793;1000.878;;;;
2019/06/30 02:30:06;;;;;;;4.5;3;;;;;;;33.77;27.30371;1000.901;;;;
2019/06/30 02:32:31;;;;;;;3.6;2.9;;;;;;;33.76;27.30371;1000.897;;;;
2019/06/30 02:35:50;;;;;;;3.6;2.8;;;;;;;33.76;27.30371;1000.928;;;;
2019/06/30 02:38:16;;;;;;;5.7;2.8;;;;;;;33.76;27.32813;1000.915;;;;
2019/06/30 02:40:41;;;;;;;4.1;3.1;;;;;;;33.76;27.32813;1000.934;;;;
2019/06/30 02:43:07;;;;;;;4.1;2.8;;;;;;;33.76;27.35254;1000.871;;;;
2019/06/30 02:45:33;;;;;;;4.2;2.9;;;;;;;33.75;27.33984;1000.871;;;;
2019/06/30 02:47:58;;;;;;;4.4;3.1;;;;;;;33.76;27.36523;1000.933;;;;
2019/06/30 02:51:17;;;;;;;4;2.7;;;;;;;33.74;27.38867;1000.958;;;;
2019/06/30 02:53:43;;;;;;;7.8;3.1;;;;;;;33.74;27.40137;1000.97;;;;
2019/06/30 02:56:08;;;;;;;4.5;2.8;;;;;;;33.74;27.41309;1000.98;;;;
2019/06/30 02:58:33;;;;;;;3.6;2.5;;;;;;;33.73;27.42578;1000.997;;;;
2019/06/30 03:00:59;;;;;;;4.3;3;;;;;;;33.73;27.4375;1000.965;;;;
2019/06/30 03:03:24;;;;;;;3.3;2.6;;;;;;;33.72;27.47363;1000.903;;;;
2019/06/30 03:05:49;;;;;;;3.3;2.8;;;;;;;33.72;27.46094;1000.918;;;;
2019/06/30 03:09:08;;;;;;;3.2;2.6;;;;;;;33.71;27.52246;1000.942;;;;
2019/06/30 03:11:33;;;;;;;4;2.9;;;;;;;33.71;27.52246;1000.934;;;;
2019/06/30 03:13:59;;;;;;;3.6;2.8;;;;;;;33.72;27.52344;1000.944;;;;
2019/06/30 03:16:24;;;;;;;3.1;2.6;;;;;;;33.7;27.54688;1000.948;;;;
2019/06/30 03:19:43;;;;;;;5.3;2.9;;;;;;;33.7;27.54688;1000.965;;;;
2019/06/30 03:23:02;;;;;;;3.5;2.5;;;;;;;33.7;27.55957;1000.951;;;;
2019/06/30 03:26:21;;;;;;;3.9;2.9;;;;;;;33.69;27.5957;1001.013;;;;
2019/06/30 03:28:46;;;;;;;5.8;2.9;;;;;;;33.68;27.59473;1001.04;;;;
2019/06/30 03:32:05;;;;;;;3.9;3;;;;;;;33.68;27.64453;1001.059;;;;
2019/06/30 03:34:31;;;;;;;3.7;2.8;;;;;;;33.68;27.62012;1001.068;;;;
2019/06/30 03:37:50;;;;;;;4.8;2.9;;;;;;;33.67;27.62012;1001.129;;;;
2019/06/30 03:41:09;;;;;;;4.8;2.8;;;;;;;33.66;27.65527;1001.091;;;;
2019/06/30 03:43:34;;;;;;;5.7;3.2;;;;;;;33.65;27.67969;1001.147;;;;
2019/06/30 03:46:00;;;;;;;7.3;2.9;;;;;;;33.66;27.66797;1001.206;;;;
2019/06/30 03:48:24;;;;;;;4.3;3;;;;;;;33.64;27.7168;1001.212;;;;
2019/06/30 03:50:50;;;;;;;5.1;3;;;;;;;33.63;27.71484;1001.253;;;;
2019/06/30 03:53:15;;;;;;;8.3;3.3;;;;;;;33.61;27.80078;1001.281;;;;
2019/06/30 03:55:41;;;;;;;6.2;3.1;;;;;;;33.6;27.78809;1001.322;;;;
2019/06/30 03:58:06;;;;;;;6;3.2;;;;;;;33.59;27.82324;1001.299;;;;
2019/06/30 04:00:31;;;;;;;5.3;3.1;;;;;;;33.57;27.86035;1001.309;;;;
2019/06/30 04:02:57;;;;;;;4.4;3.1;;;;;;;33.57;27.87207;1001.288;;;;
2019/06/30 04:05:21;;;;;;;4.4;3.2;;;;;;;33.56;27.9209;1001.317;;;;
2019/06/30 04:07:47;;;;;;;5.4;3.2;;;;;;;33.55;27.91992;1001.324;;;;
2019/06/30 04:10:13;;;;;;;4.2;3;;;;;;;33.55;27.93359;1001.356;;;;
2019/06/30 04:12:39;;;;;;;6.1;3.3;;;;;;;33.54;27.96875;1001.392;;;;
2019/06/30 04:15:57;;;;;;;3.9;2.9;;;;;;;33.52;28.00488;1001.394;;;;
2019/06/30 04:18:22;;;;;;;5.2;3.2;;;;;;;33.52;28.0293;1001.383;;;;
2019/06/30 04:20:47;;;;;;;4.5;2.9;;;;;;;33.52;28.06641;1001.417;;;;
2019/06/30 04:23:13;;;;;;;5.7;3.2;;;;;;;33.53;28.04297;1001.434;;;;
2019/06/30 04:25:38;;;;;;;3.3;2.9;;;;;;;33.53;28.08008;1001.423;;;;
2019/06/30 04:28:03;;;;;;;5.4;3.3;;;;;;;33.52;28.0791;1001.44;;;;
2019/06/30 04:30:29;;;;;;;5.4;3.3;;;;;;;33.52;28.10352;1001.456;;;;
2019/06/30 04:32:54;;;;;;;6.5;3;;;;;;;33.52;28.11523;1001.481;;;;
2019/06/30 04:36:29;;;;;;;4.1;2.9;;;;;;;33.5;28.16406;1001.484;;;;
2019/06/30 04:38:54;;;;;;;6.5;3.2;;;;;;;33.51;28.22656;1001.509;;;;
2019/06/30 04:41:21;;;;;;;4.4;2.7;;;;;;;33.52;28.25098;1001.508;;;;
2019/06/30 04:41:40;;;;;;;4.6;2.9;;;;;;;33.52;28.27637;1001.531;;;;
2019/06/30 04:44:07;;;;;;;5.4;3.2;;;;;;;33.54;28.30273;1001.518;;;;
2019/06/30 04:46:33;;;;;;;4.8;2.9;;;;;;;33.56;28.32813;1001.55;;;;
2019/06/30 04:48:56;;;;;;;5.1;2.7;;;;;;;33.57;28.3291;1001.575;;;;
2019/06/30 04:51:21;;;;;;;5;3;;;;;;;33.59;28.28125;1001.563;;;;
2019/06/30 04:53:47;;;;;;;7.3;2.8;;;;;;;33.6;28.28125;1001.565;;;;
2019/06/30 04:57:06;;;;;;;3.5;2.6;;;;;;;33.62;28.32031;1001.568;;;;
2019/06/30 05:00:25;;;;;;;4.4;2.9;;;;;;;33.66;28.28516;1001.626;;;;
2019/06/30 05:02:52;;;;;;;5.7;3;;;;;;;33.68;28.29883;1001.624;;;;
2019/06/30 05:05:17;;;;;;;5.1;3.3;;;;;;;33.7;28.28711;1001.646;;;;
2019/06/30 05:07:42;;;;;;;4;2.7;;;;;;;33.72;28.30176;1001.648;;;;
2019/06/30 05:11:01;;;;;;;3.9;3.2;;;;;;;33.75;28.30273;1001.696;;;;
2019/06/30 05:14:20;;;;;;;4.3;2.9;;;;;;;33.79;28.26855;1001.727;;;;
2019/06/30 05:16:45;;;;;;;3.5;2.9;;;;;;;33.82;28.24609;1001.748;;;;
2019/06/30 05:19:11;;;;;;;4.6;2.9;;;;;;;33.86;28.21191;1001.76;;;;
2019/06/30 05:21:35;;;;;;;4.8;2.9;;;;;;;33.9;28.18848;1001.766;;;;
2019/06/30 05:24:01;;;;;;;4.6;2.8;;;;;;;33.92;28.05371;1001.788;;;;
2019/06/30 05:27:20;;;;;;;5;3.1;;;;;;;33.94;27.93262;1001.791;;;;
2019/06/30 05:29:45;;;;;;;5.8;3;;;;;;;33.96;27.8584;1001.807;;;;
2019/06/30 05:33:04;;;;;;;4.9;3;;;;;;;33.99;27.72461;1001.754;;;;
2019/06/30 05:35:29;;;;;;;4.9;2.8;;;;;;;34;27.68848;1001.754;;;;
2019/06/30 05:37:55;;;;;;;4;2.5;;;;;;;34.01;27.60254;1001.743;;;;
2019/06/30 05:38:17;;;;;;;3.4;2.6;;;;;;;34.01;27.59082;1001.735;;;;
2019/06/30 05:40:42;;;;;;;5.6;2.9;;;;;;;34.02;27.5791;1001.769;;;;
2019/06/30 05:44:00;;;;;;;3.9;2.7;;;;;;;34.06;27.45801;1001.738;;;;
2019/06/30 05:46:27;;;;;;;4.8;2.9;;;;;;;34.09;27.39746;1001.745;;;;
2019/06/30 05:48:52;;;;;;;5.1;2.8;;;;;;;34.12;27.39941;1001.787;;;;
2019/06/30 05:51:18;;;;;;;5.1;2.9;;;;;;;34.15;27.33887;1001.776;;;;
2019/06/30 05:53:43;;;;;;;4.5;2.7;;;;;;;34.17;27.30371;1001.8;;;;
2019/06/30 05:56:08;;;;;;;3.6;2.8;;;;;;;34.19;27.28027;1001.807;;;;
2019/06/30 05:58:33;;;;;;;4;2.8;;;;;;;34.22;27.26855;1001.763;;;;
2019/06/30 06:00:59;;;;;;;5.2;3.3;;;;;;;34.24;27.25781;1001.769;;;;
2019/06/30 06:03:24;;;;;;;4.4;3;;;;;;;34.25;27.29492;1001.763;;;;
2019/06/30 06:05:50;;;;;;;4.8;2.8;;;;;;;34.28;27.24805;1001.757;;;;
2019/06/30 06:08:15;;;;;;;4.5;3.1;;;;;;;34.29;27.31055;1001.778;;;;
2019/06/30 06:10:40;;;;;;;4.3;3.2;;;;;;;34.29;27.32324;1001.794;;;;
2019/06/30 06:13:06;;;;;;;5.9;3.3;;;;;;;34.32;27.2627;1001.807;;;;
2019/06/30 06:15:31;;;;;;;4.9;2.9;;;;;;;34.31;27.33691;1001.834;;;;
2019/06/30 06:17:56;;;;;;;4.9;3.2;;;;;;;34.33;27.41211;1001.864;;;;
2019/06/30 06:21:15;;;;;;;4;2.8;;;;;;;34.32;27.50977;1001.934;;;;
2019/06/30 06:23:41;;;;;;;4.9;3.1;;;;;;;34.32;27.57129;1001.93;;;;
2019/06/30 06:26:06;;;;;;;4.7;2.9;;;;;;;34.33;27.54785;1001.911;;;;
2019/06/30 06:28:32;;;;;;;6;3.3;;;;;;;34.33;27.62305;1002.015;;;;
2019/06/30 06:30:57;;;;;;;5.5;2.9;;;;;;;34.34;27.63477;1002.022;;;;
2019/06/30 06:33:23;;;;;;;5.4;3.2;;;;;;;34.34;27.68457;1002.033;;;;
2019/06/30 06:35:48;;;;;;;4.9;3.4;;;;;;;34.36;27.69824;1002.051;;;;
2019/06/30 06:38:14;;;;;;;3.7;3.1;;;;;;;34.36;27.70996;1002.083;;;;
2019/06/30 06:38:50;;;;;;;4.1;3.2;;;;;;;34.36;27.72266;1002.099;;;;
2019/06/30 06:41:15;;;;;;;4.3;3.3;;;;;;;34.37;27.73535;1002.09;;;;
2019/06/30 06:43:40;;;;;;;4.9;3.2;;;;;;;34.38;27.77344;1002.084;;;;
2019/06/30 06:46:06;;;;;;;5.9;3.2;;;;;;;34.38;27.79785;1002.102;;;;
2019/06/30 06:48:31;;;;;;;7.2;3.3;;;;;;;34.37;27.88379;1002.075;;;;
2019/06/30 06:50:57;;;;;;;3.9;2.9;;;;;;;34.38;27.82324;1002.072;;;;
2019/06/30 06:53:22;;;;;;;5.9;3.6;;;;;;;34.39;27.87305;1002.075;;;;
2019/06/30 06:55:49;;;;;;;5.6;3.1;;;;;;;34.41;27.96094;1002.083;;;;
2019/06/30 06:56:32;;;;;;;8.8;3.5;;;;;;;34.41;27.96094;1002.1;;;;
2019/06/30 06:58:57;;;;;;;5.2;3.6;;;;;;;34.4;27.98438;1002.09;;;;
2019/06/30 07:01:21;;;;;;;5;3.1;;;;;;;34.4;27.99707;1002.096;;;;
2019/06/30 07:03:48;;;;;;;6;2.8;;;;;;;34.42;27.98633;1002.115;;;;
2019/06/30 07:06:13;;;;;;;4.3;3.2;;;;;;;34.43;28.04883;1002.112;;;;
2019/06/30 07:08:38;;;;;;;4.8;3.2;;;;;;;34.44;28.11133;1002.154;;;;
2019/06/30 07:11:03;;;;;;;3.9;3.2;;;;;;;34.44;28.28418;1002.174;;;;
2019/06/30 07:13:28;;;;;;;3.9;3;;;;;;;34.43;28.3457;1002.157;;;;
2019/06/30 07:14:12;;;;;;;8;3.3;;;;;;;34.42;28.46875;1002.127;;;;
2019/06/30 07:16:36;;;;;;;4.9;3.5;;;;;;;34.42;28.45703;1002.131;;;;
2019/06/30 07:19:01;;;;;;;5.3;3.4;;;;;;;34.43;28.40723;1002.111;;;;
2019/06/30 07:19:16;;;;;;;5.7;3.3;;;;;;;34.43;28.49414;1002.105;;;;
2019/06/30 07:21:42;;;;;;;5.4;3.2;;;;;;;34.44;28.55566;1002.098;;;;
2019/06/30 07:24:06;;;;;;;4.8;3.3;;;;;;;34.46;28.64355;1002.136;;;;
2019/06/30 07:26:32;;;;;;;3.5;3.2;;;;;;;34.45;28.54395;1002.17;;;;
2019/06/30 07:28:58;;;;;;;5.6;3.3;;;;;;;34.46;28.79297;1002.176;;;;
2019/06/30 07:31:23;;;;;;;7.2;3.3;;;;;;;34.46;28.76758;1002.197;;;;
2019/06/30 07:31:54;;;;;;;6;3.3;;;;;;;34.46;28.75488;1002.207;;;;
2019/06/30 07:34:19;;;;;;;5.1;3.2;;;;;;;34.47;28.71875;1002.225;;;;
2019/06/30 07:36:44;;;;;;;4.1;3.4;;;;;;;34.48;28.73242;1002.249;;;;
2019/06/30 07:39:10;;;;;;;4.1;3.4;;;;;;;34.5;28.6709;1002.237;;;;
2019/06/30 07:41:36;;;;;;;6.4;3.4;;;;;;;34.51;28.67188;1002.242;;;;
2019/06/30 07:44:01;;;;;;;4.5;3.3;;;;;;;34.51;28.7334;1002.239;;;;
2019/06/30 07:46:27;;;;;;;7.1;3.4;;;;;;;34.52;28.79688;1002.256;;;;
2019/06/30 07:48:51;;;;;;;5.6;3.4;;;;;;;34.52;28.8457;1002.269;;;;
2019/06/30 07:51:17;;;;;;;5.1;3.1;;;;;;;34.52;28.79688;1002.255;;;;
2019/06/30 07:53:41;;;;;;;5.2;3.4;;;;;;;34.53;28.95801;1002.24;;;;
2019/06/30 07:56:09;;;;;;;7;3.8;;;;;;;34.53;28.99512;1002.242;;;;
2019/06/30 07:59:29;;;;;;;4.9;3.1;;;;;;;34.55;28.94629;1002.22;;;;
2019/06/30 08:01:53;;;;;;;4.3;3.2;;;;;;;34.57;29.07129;1002.208;;;;
2019/06/30 08:04:19;;;;;;;5.4;3.2;;;;;;;34.57;29.03418;1002.213;;;;
2019/06/30 08:06:47;;;;;;;7;3.7;;;;;;;34.58;29.09668;1002.262;;;;
2019/06/30 08:09:11;;;;;;;5.4;3.3;;;;;;;34.59;29.01074;1002.272;;;;
2019/06/30 08:12:29;;;;;;;5.1;3.3;;;;;;;34.61;29.06152;1002.256;;;;
2019/06/30 08:14:55;;;;;;;5.4;3.3;;;;;;;34.62;29.03711;1002.296;;;;
2019/06/30 08:17:20;;;;;;;4.4;3.2;;;;;;;34.63;29.00195;1002.292;;;;
2019/06/30 08:20:40;;;;;;;4.2;3.1;;;;;;;34.64;29.07617;1002.27;;;;
2019/06/30 08:23:05;;;;;;;6.2;2.9;;;;;;;34.65;29.07715;1002.215;;;;
2019/06/30 08:25:30;;;;;;;4.7;3.2;;;;;;;34.67;29.05371;1002.213;;;;
2019/06/30 08:27:55;;;;;;;5.7;3.3;;;;;;;34.68;29.02832;1002.215;;;;
2019/06/30 08:30:22;;;;;;;5.8;3.3;;;;;;;34.69;29.08008;1002.219;;;;
2019/06/30 08:32:47;;;;;;;4.1;3.2;;;;;;;34.72;29.05664;1002.212;;;;
2019/06/30 08:35:13;;;;;;;5.3;3.4;;;;;;;34.75;29.00879;1002.166;;;;
2019/06/30 08:37:38;;;;;;;4.3;3.2;;;;;;;34.76;29.07129;1002.168;;;;
2019/06/30 08:40:03;;;;;;;6;3.2;;;;;;;34.77;29.08496;1002.203;;;;
2019/06/30 08:42:29;;;;;;;5.9;3.5;;;;;;;34.79;29.12305;1002.212;;;;
2019/06/30 08:42:36;;;;;;;5.8;3.6;;;;;;;34.8;29.11133;1002.177;;;;
2019/06/30 08:45:01;;;;;;;6.6;3.3;;;;;;;34.82;29.05078;1002.161;;;;
2019/06/30 08:47:26;;;;;;;5.7;3.3;;;;;;;34.86;28.97949;1002.176;;;;
2019/06/30 08:49:52;;;;;;;5.2;3;;;;;;;34.89;28.98047;1002.18;;;;
2019/06/30 08:52:19;;;;;;;5.4;2.9;;;;;;;34.88;29.01758;1002.214;;;;
2019/06/30 08:54:42;;;;;;;5.9;3.4;;;;;;;34.89;28.96875;1002.211;;;;
2019/06/30 08:58:02;;;;;;;4.6;3;;;;;;;34.9;28.99316;1002.178;;;;
2019/06/30 09:00:27;;;;;;;4.1;2.9;;;;;;;34.91;28.96875;1002.158;;;;
2019/06/30 09:01:10;;;;;;;5;3.1;;;;;;;34.91;28.95703;1002.152;;;;
2019/06/30 09:03:35;;;;;;;5.5;3.1;;;;;;;34.9;29.04297;1002.104;;;;
2019/06/30 09:06:01;;;;;;;5.5;3.3;;;;;;;34.9;29.04297;1002.106;;;;
2019/06/30 09:08:25;;;;;;;5.6;3.1;;;;;;;34.91;29.00684;1002.067;;;;
2019/06/30 09:10:50;;;;;;;4.6;3.1;;;;;;;34.92;29.03223;1002.062;;;;
2019/06/30 09:13:16;;;;;;;4.3;2.8;;;;;;;34.92;29.04395;1002.048;;;;
2019/06/30 09:15:41;;;;;;;4.6;3;;;;;;;34.93;29.04492;1002.099;;;;
2019/06/30 09:18:07;;;;;;;5;3.2;;;;;;;34.94;29.16992;1002.14;;;;
2019/06/30 09:20:32;;;;;;;5.2;3;;;;;;;34.95;29.05859;1002.137;;;;
2019/06/30 09:22:57;;;;;;;6.1;3;;;;;;;34.95;29.07129;1002.099;;;;
2019/06/30 09:25:22;;;;;;;4.5;3;;;;;;;34.96;29.07227;1002.095;;;;
2019/06/30 09:27:48;;;;;;;5.7;3.2;;;;;;;34.98;29.12207;1002.102;;;;
2019/06/30 09:30:14;;;;;;;7.4;3.2;;;;;;;35;29.16113;1002.105;;;;
2019/06/30 09:32:38;;;;;;;5;3;;;;;;;34.99;29.20996;1002.079;;;;
2019/06/30 09:35:04;;;;;;;4.5;3;;;;;;;35;29.0127;1002.108;;;;
2019/06/30 09:38:24;;;;;;;4.3;2.9;;;;;;;34.99;29.17285;1002.045;;;;
2019/06/30 09:40:50;;;;;;;4.8;2.8;;;;;;;34.99;29.07324;1002.01;;;;
2019/06/30 09:43:14;;;;;;;3.9;2.8;;;;;;;34.98;29.16016;1001.996;;;;
2019/06/30 09:45:40;;;;;;;3.4;2.8;;;;;;;35.01;29.13672;1001.994;;;;
2019/06/30 09:48:04;;;;;;;4.1;2.9;;;;;;;35.01;29.48438;1001.989;;;;
2019/06/30 09:51:26;;;;;;;5.2;2.9;;;;;;;35.03;29.37402;1001.991;;;;
2019/06/30 09:53:49;;;;;;;3.3;2.8;;;;;;;35.04;29.20117;1002.001;;;;
2019/06/30 09:56:15;;;;;;;4.2;3;;;;;;;35.04;29.41113;1001.98;;;;
2019/06/30 09:58:40;;;;;;;4.5;2.8;;;;;;;35.04;29.42285;1001.989;;;;
2019/06/30 09:59:13;;;;;;;5.3;2.8;;;;;;;35.05;29.48535;1002.037;;;;
2019/06/30 10:01:38;;;;;;;4.3;3;;;;;;;35.03;29.24902;1002.023;;;;
2019/06/30 10:04:05;;;;;;;5.6;2.7;;;;;;;35.03;29.28613;1001.967;;;;
2019/06/30 10:06:28;;;;;;;6;3.2;;;;;;;35.02;29.42188;1001.976;;;;
2019/06/30 10:08:54;;;;;;;4.3;3;;;;;;;35.03;29.34863;1002.028;;;;
2019/06/30 10:11:19;;;;;;;5;3;;;;;;;35.03;29.33594;1001.987;;;;
2019/06/30 10:13:44;;;;;;;5.6;3.1;;;;;;;35.03;29.41113;1001.955;;;;
2019/06/30 10:16:09;;;;;;;4.2;3;;;;;;;35.03;29.28613;1001.918;;;;
2019/06/30 10:18:34;;;;;;;5.4;2.9;;;;;;;35.01;29.29785;1001.909;;;;
2019/06/30 10:21:00;;;;;;;3.8;2.9;;;;;;;35.01;29.35938;1001.867;;;;
2019/06/30 10:23:25;;;;;;;4.4;3;;;;;;;35.02;29.48438;1001.822;;;;
2019/06/30 10:26:44;;;;;;;3.4;2.8;;;;;;;35.05;29.55957;1001.897;;;;
2019/06/30 10:29:10;;;;;;;5.6;3.2;;;;;;;35.06;29.48633;1001.87;;;;
2019/06/30 10:31:35;;;;;;;4.1;2.9;;;;;;;35.06;29.48633;1001.915;;;;
2019/06/30 10:34:03;;;;;;;4.7;2.8;;;;;;;35.05;29.52344;1001.946;;;;
2019/06/30 10:36:29;;;;;;;5.1;2.8;;;;;;;35.03;29.50977;1001.898;;;;
2019/06/30 10:38:54;;;;;;;5.2;3.1;;;;;;;35.05;29.49902;1001.919;;;;
2019/06/30 10:43:07;;;;;;;5.5;3;;;;;;;35.05;29.375;1001.882;;;;
2019/06/30 10:45:32;;;;;;;4.6;2.7;;;;;;;35.06;29.35059;1001.829;;;;
2019/06/30 10:47:57;;;;;;;3.5;2.7;;;;;;;35.06;29.375;1001.849;;;;
2019/06/30 10:50:22;;;;;;;6.2;3;;;;;;;35.06;29.22656;1001.824;;;;
2019/06/30 10:53:41;;;;;;;4.9;2.9;;;;;;;35.06;29.20215;1001.785;;;;
2019/06/30 10:56:07;;;;;;;3.8;2.6;;;;;;;35.06;29.10254;1001.728;;;;
2019/06/30 10:58:32;;;;;;;4.8;2.8;;;;;;;35.07;28.94238;1001.767;;;;
2019/06/30 11:00:58;;;;;;;4;2.6;;;;;;;35.07;28.86719;1001.714;;;;
2019/06/30 11:03:22;;;;;;;4.7;2.9;;;;;;;35.05;28.81738;1001.735;;;;
2019/06/30 11:05:47;;;;;;;3.8;2.6;;;;;;;35.06;28.80566;1001.746;;;;
2019/06/30 11:08:13;;;;;;;5.6;2.7;;;;;;;35.06;28.81836;1001.733;;;;
2019/06/30 11:10:38;;;;;;;6;3;;;;;;;35.07;28.78125;1001.748;;;;
2019/06/30 11:10:51;;;;;;;4.7;2.7;;;;;;;35.08;28.75684;1001.775;;;;
2019/06/30 11:13:15;;;;;;;3.6;2.6;;;;;;;35.08;28.68359;1001.713;;;;
2019/06/30 11:16:34;;;;;;;3;2.6;;;;;;;35.08;28.64551;1001.668;;;;
2019/06/30 11:18:59;;;;;;;5.3;2.5;;;;;;;35.07;28.52148;1001.762;;;;
2019/06/30 11:21:25;;;;;;;3.7;2.7;;;;;;;35.06;28.42188;1001.726;;;;
2019/06/30 11:23:50;;;;;;;4.3;2.6;;;;;;;35.07;28.39746;1001.715;;;;
2019/06/30 11:27:09;;;;;;;4.2;2.4;;;;;;;35.07;28.45898;1001.645;;;;
2019/06/30 11:30:29;;;;;;;4.5;2.6;;;;;;;35.08;28.34863;1001.721;;;;
2019/06/30 11:33:48;;;;;;;5.3;2.6;;;;;;;35.07;28.36035;1001.626;;;;
2019/06/30 11:36:14;;;;;;;3;2.6;;;;;;;35.08;28.38574;1001.581;;;;
2019/06/30 11:39:32;;;;;;;7.5;2.7;;;;;;;35.11;28.33789;1001.56;;;;
2019/06/30 11:41:57;;;;;;;3.7;2.5;;;;;;;35.12;28.33789;1001.475;;;;
2019/06/30 11:44:23;;;;;;;6.4;2.6;;;;;;;35.12;28.32617;1001.507;;;;
2019/06/30 11:46:47;;;;;;;4.5;2.3;;;;;;;35.12;28.32617;1001.555;;;;
2019/06/30 11:49:13;;;;;;;4.8;2.4;;;;;;;35.12;28.32617;1001.561;;;;
2019/06/30 11:51:38;;;;;;;4.1;2.4;;;;;;;35.14;28.33984;1001.575;;;;
2019/06/30 11:52:14;;;;;;;4.3;2.8;;;;;;;35.13;28.33984;1001.552;;;;
2019/06/30 11:54:39;;;;;;;5.1;2.6;;;;;;;35.14;28.33984;1001.597;;;;
2019/06/30 11:57:05;;;;;;;7.1;2.4;;;;;;;35.15;28.35352;1001.578;;;;
2019/06/30 11:59:30;;;;;;;5.2;2.6;;;;;;;35.15;28.35352;1001.544;;;;
2019/06/30 12:02:50;;;;;;;4;2.6;;;;;;;35.15;28.22949;1001.533;;;;
2019/06/30 12:05:15;;;;;;;3.1;2.3;;;;;;;35.16;28.20508;1001.492;;;;
2019/06/30 12:08:34;;;;;;;3.4;2.3;;;;;;;35.15;28.2041;1001.51;;;;
2019/06/30 12:11:52;;;;;;;4.7;2.1;;;;;;;35.16;28.24219;1001.525;;;;
2019/06/30 12:14:18;;;;;;;3.9;2.4;;;;;;;35.17;28.25488;1001.526;;;;
2019/06/30 12:16:44;;;;;;;4.9;2.4;;;;;;;35.18;28.24316;1001.527;;;;
2019/06/30 12:19:08;;;;;;;4.1;2.2;;;;;;;35.18;28.20605;1001.533;;;;
2019/06/30 12:22:29;;;;;;;5.3;2.4;;;;;;;35.19;28.19434;1001.478;;;;
2019/06/30 12:24:54;;;;;;;4.1;2.3;;;;;;;35.2;28.26953;1001.482;;;;
2019/06/30 12:25:13;;;;;;;3;2.3;;;;;;;35.21;28.26953;1001.472;;;;
2019/06/30 12:27:38;;;;;;;4.5;2.3;;;;;;;35.22;28.18359;1001.588;;;;
2019/06/30 12:30:04;;;;;;;5;2.4;;;;;;;35.23;28.03613;1001.509;;;;
2019/06/30 12:32:29;;;;;;;2.6;2.1;;;;;;;35.25;28.01172;1001.483;;;;
2019/06/30 12:34:54;;;;;;;5;2.5;;;;;;;35.27;28.02539;1001.426;;;;
2019/06/30 12:37:20;;;;;;;3.3;2.2;;;;;;;35.26;28.00098;1001.435;;;;
2019/06/30 12:39:45;;;;;;;4.5;2.2;;;;;;;35.27;27.96387;1001.462;;;;
2019/06/30 12:42:10;;;;;;;3.7;2.2;;;;;;;35.28;27.89063;1001.482;;;;
2019/06/30 12:44:36;;;;;;;2.8;2.1;;;;;;;35.29;27.86523;1001.468;;;;
2019/06/30 12:47:01;;;;;;;3;2;;;;;;;35.29;27.80371;1001.487;;;;
2019/06/30 12:49:29;;;;;;;2.5;2.1;;;;;;;35.3;27.71777;1001.516;;;;
2019/06/30 12:51:52;;;;;;;4.6;2.2;;;;;;;35.3;27.71777;1001.535;;;;
2019/06/30 12:54:21;;;;;;;6.5;2.5;;;;;;;35.31;27.69336;1001.496;;;;
2019/06/30 12:56:42;;;;;;;3.8;2;;;;;;;35.32;27.66992;1001.463;;;;
2019/06/30 12:59:09;;;;;;;3.4;2.2;;;;;;;35.33;27.62109;1001.457;;;;
2019/06/30 13:02:28;;;;;;;3.2;2.3;;;;;;;35.33;27.63281;1001.449;;;;
2019/06/30 13:04:53;;;;;;;3;2.2;;;;;;;35.34;27.69531;1001.48;;;;
2019/06/30 13:05:38;;;;;;;3.2;2.4;;;;;;;35.34;27.71973;1001.467;;;;
2019/06/30 13:08:04;;;;;;;4.2;2.5;;;;;;;35.35;27.82031;1001.428;;;;
2019/06/30 13:11:22;;;;;;;5.7;2.4;;;;;;;35.39;27.78516;1001.461;;;;
2019/06/30 13:13:48;;;;;;;2.9;2.3;;;;;;;35.4;27.76074;1001.498;;;;
2019/06/30 13:16:14;;;;;;;7;2.5;;;;;;;35.39;27.82227;1001.472;;;;
2019/06/30 13:18:39;;;;;;;3.6;2.3;;;;;;;35.4;27.86035;1001.491;;;;
2019/06/30 13:21:58;;;;;;;3.5;2.4;;;;;;;35.42;28.03516;1001.43;;;;
2019/06/30 13:24:23;;;;;;;5.8;2.5;;;;;;;35.43;28.08496;1001.485;;;;
2019/06/30 13:26:49;;;;;;;3.1;2.7;;;;;;;35.44;28.11035;1001.429;;;;
2019/06/30 13:29:14;;;;;;;4.3;2.8;;;;;;;35.45;28.13574;1001.42;;;;
2019/06/30 13:32:33;;;;;;;3.9;2.6;;;;;;;35.46;28.16211;1001.418;;;;
2019/06/30 13:34:58;;;;;;;4.2;2.7;;;;;;;35.47;28.29883;1001.352;;;;
2019/06/30 13:37:23;;;;;;;3.7;2.7;;;;;;;35.48;28.33691;1001.311;;;;
2019/06/30 13:39:49;;;;;;;4.2;2.9;;;;;;;35.5;28.30078;1001.302;;;;
2019/06/30 13:43:08;;;;;;;3.7;2.7;;;;;;;35.51;28.58594;1001.36;;;;
2019/06/30 13:45:34;;;;;;;4.8;2.8;;;;;;;35.5;28.59766;1001.257;;;;
2019/06/30 13:47:59;;;;;;;4.6;2.6;;;;;;;35.5;28.80859;1001.249;;;;
2019/06/30 13:50:25;;;;;;;4.4;2.8;;;;;;;35.51;28.62305;1001.191;;;;
2019/06/30 13:52:51;;;;;;;6.4;2.6;;;;;;;35.51;28.83398;1001.233;;;;
2019/06/30 13:55:15;;;;;;;4.2;2.9;;;;;;;35.49;28.75879;1001.245;;;;
2019/06/30 13:57:40;;;;;;;4.5;2.6;;;;;;;35.49;29.00684;1001.161;;;;
2019/06/30 13:57:54;;;;;;;4.8;2.8;;;;;;;35.49;29.08105;1001.194;;;;
2019/06/30 14:00:19;;;;;;;5;3.1;;;;;;;35.49;28.95703;1001.15;;;;
2019/06/30 14:02:45;;;;;;;4.8;2.7;;;;;;;35.53;29.19434;1001.104;;;;
2019/06/30 14:05:10;;;;;;;4.2;2.9;;;;;;;35.54;29.27051;1001.109;;;;
2019/06/30 14:07:35;;;;;;;4.8;2.9;;;;;;;35.55;29.2959;1001.097;;;;
2019/06/30 14:10:55;;;;;;;4.6;3.1;;;;;;;35.58;29.59473;1001.061;;;;
2019/06/30 14:13:19;;;;;;;5.1;3.2;;;;;;;35.59;29.58203;1001.048;;;;